sensor_id;sensor_type;location;lat;lon;timestamp;P1;durP1;ratioP1;P2;durP2;ratioP2
34359;SDS011;20624;55.870;26.506;2022-09-02T00:00:01;1.70;;;0.43;;
34359;SDS011;20624;55.870;26.506;2022-09-02T00:02:33;1.02;;;0.40;;
34359;SDS011;20624;55.870;26.506;2022-09-02T00:05:00;0.93;;;0.50;;
34359;SDS011;20624;55.870;26.506;2022-09-02T00:07:28;3.13;;;0.30;;
34359;SDS011;20624;55.870;26.506;2022-09-02T00:09:56;0.77;;;0.50;;
34359;SDS011;20624;55.870;26.506;2022-09-02T00:12:25;0.80;;;0.32;;
34359;SDS011;20624;55.870;26.506;2022-09-02T00:14:53;1.05;;;0.40;;
34359;SDS011;20624;55.870;26.506;2022-09-02T00:17:20;1.98;;;0.50;;
34359;SDS011;20624;55.870;26.506;2022-09-02T00:19:48;0.57;;;0.30;;
34359;SDS011;20624;55.870;26.506;2022-09-02T00:22:21;1.00;;;0.68;;
34359;SDS011;20624;55.870;26.506;2022-09-02T00:24:49;0.63;;;0.20;;
34359;SDS011;20624;55.870;26.506;2022-09-02T00:27:17;1.10;;;0.43;;
34359;SDS011;20624;55.870;26.506;2022-09-02T00:29:44;0.82;;;0.35;;
34359;SDS011;20624;55.870;26.506;2022-09-02T00:32:12;0.80;;;0.25;;
34359;SDS011;20624;55.870;26.506;2022-09-02T00:34:40;1.05;;;0.43;;
34359;SDS011;20624;55.870;26.506;2022-09-02T00:37:07;0.90;;;0.30;;
34359;SDS011;20624;55.870;26.506;2022-09-02T00:39:35;0.38;;;0.30;;
34359;SDS011;20624;55.870;26.506;2022-09-02T00:42:03;0.32;;;0.20;;
34359;SDS011;20624;55.870;26.506;2022-09-02T00:44:32;0.77;;;0.40;;
34359;SDS011;20624;55.870;26.506;2022-09-02T00:46:59;1.67;;;0.40;;
34359;SDS011;20624;55.870;26.506;2022-09-02T00:49:31;1.00;;;0.55;;
34359;SDS011;20624;55.870;26.506;2022-09-02T00:52:08;1.08;;;0.57;;
34359;SDS011;20624;55.870;26.506;2022-09-02T00:54:44;0.75;;;0.40;;
34359;SDS011;20624;55.870;26.506;2022-09-02T00:57:16;1.00;;;0.40;;
34359;SDS011;20624;55.870;26.506;2022-09-02T01:02:27;2.40;;;0.20;;
34359;SDS011;20624;55.870;26.506;2022-09-02T01:04:58;1.33;;;0.60;;
34359;SDS011;20624;55.870;26.506;2022-09-02T01:07:27;0.73;;;0.50;;
34359;SDS011;20624;55.870;26.506;2022-09-02T01:09:58;1.35;;;0.30;;
34359;SDS011;20624;55.870;26.506;2022-09-02T01:12:28;1.45;;;0.20;;
34359;SDS011;20624;55.870;26.506;2022-09-02T01:17:27;0.63;;;0.40;;
34359;SDS011;20624;55.870;26.506;2022-09-02T01:19:59;1.00;;;0.47;;
34359;SDS011;20624;55.870;26.506;2022-09-02T01:22:32;2.00;;;0.40;;
34359;SDS011;20624;55.870;26.506;2022-09-02T01:25:01;0.95;;;0.50;;
34359;SDS011;20624;55.870;26.506;2022-09-02T01:27:33;0.82;;;0.22;;
34359;SDS011;20624;55.870;26.506;2022-09-02T01:30:03;3.83;;;0.52;;
34359;SDS011;20624;55.870;26.506;2022-09-02T01:32:31;0.73;;;0.30;;
34359;SDS011;20624;55.870;26.506;2022-09-02T01:34:59;1.27;;;0.50;;
34359;SDS011;20624;55.870;26.506;2022-09-02T01:37:26;0.80;;;0.50;;
34359;SDS011;20624;55.870;26.506;2022-09-02T01:39:54;1.23;;;0.77;;
34359;SDS011;20624;55.870;26.506;2022-09-02T01:42:22;0.60;;;0.40;;
34359;SDS011;20624;55.870;26.506;2022-09-02T01:44:51;0.80;;;0.30;;
34359;SDS011;20624;55.870;26.506;2022-09-02T01:47:20;0.60;;;0.30;;
34359;SDS011;20624;55.870;26.506;2022-09-02T01:49:50;0.40;;;0.30;;
34359;SDS011;20624;55.870;26.506;2022-09-02T01:52:18;0.22;;;0.20;;
34359;SDS011;20624;55.870;26.506;2022-09-02T01:54:47;1.05;;;0.40;;
34359;SDS011;20624;55.870;26.506;2022-09-02T01:57:15;0.60;;;0.30;;
34359;SDS011;20624;55.870;26.506;2022-09-02T01:59:43;0.70;;;0.30;;
34359;SDS011;20624;55.870;26.506;2022-09-02T02:02:12;0.60;;;0.32;;
34359;SDS011;20624;55.870;26.506;2022-09-02T02:04:42;1.33;;;0.50;;
34359;SDS011;20624;55.870;26.506;2022-09-02T02:07:15;0.55;;;0.30;;
34359;SDS011;20624;55.870;26.506;2022-09-02T02:09:45;0.40;;;0.28;;
34359;SDS011;20624;55.870;26.506;2022-09-02T02:12:13;0.75;;;0.30;;
34359;SDS011;20624;55.870;26.506;2022-09-02T02:14:40;0.40;;;0.20;;
34359;SDS011;20624;55.870;26.506;2022-09-02T02:17:08;1.27;;;0.40;;
34359;SDS011;20624;55.870;26.506;2022-09-02T02:19:36;0.98;;;0.50;;
34359;SDS011;20624;55.870;26.506;2022-09-02T02:22:04;2.65;;;0.50;;
34359;SDS011;20624;55.870;26.506;2022-09-02T02:24:31;1.38;;;0.65;;
34359;SDS011;20624;55.870;26.506;2022-09-02T02:26:59;2.03;;;0.43;;
34359;SDS011;20624;55.870;26.506;2022-09-02T02:29:29;0.90;;;0.43;;
34359;SDS011;20624;55.870;26.506;2022-09-02T02:31:57;0.75;;;0.30;;
34359;SDS011;20624;55.870;26.506;2022-09-02T02:34:24;1.48;;;0.47;;
34359;SDS011;20624;55.870;26.506;2022-09-02T02:36:52;0.63;;;0.30;;
34359;SDS011;20624;55.870;26.506;2022-09-02T02:39:20;0.65;;;0.40;;
34359;SDS011;20624;55.870;26.506;2022-09-02T02:41:48;1.27;;;0.60;;
34359;SDS011;20624;55.870;26.506;2022-09-02T02:44:16;1.17;;;0.60;;
34359;SDS011;20624;55.870;26.506;2022-09-02T02:46:44;1.75;;;0.57;;
34359;SDS011;20624;55.870;26.506;2022-09-02T02:49:12;2.20;;;0.70;;
34359;SDS011;20624;55.870;26.506;2022-09-02T02:51:41;0.77;;;0.40;;
34359;SDS011;20624;55.870;26.506;2022-09-02T02:54:08;2.53;;;0.57;;
34359;SDS011;20624;55.870;26.506;2022-09-02T02:56:36;1.10;;;0.55;;
34359;SDS011;20624;55.870;26.506;2022-09-02T02:59:04;0.60;;;0.30;;
34359;SDS011;20624;55.870;26.506;2022-09-02T03:01:33;0.65;;;0.25;;
34359;SDS011;20624;55.870;26.506;2022-09-02T03:04:00;0.60;;;0.35;;
34359;SDS011;20624;55.870;26.506;2022-09-02T03:06:28;3.80;;;0.55;;
34359;SDS011;20624;55.870;26.506;2022-09-02T03:08:56;0.30;;;0.20;;
34359;SDS011;20624;55.870;26.506;2022-09-02T03:11:24;0.30;;;0.22;;
34359;SDS011;20624;55.870;26.506;2022-09-02T03:13:53;1.50;;;0.50;;
34359;SDS011;20624;55.870;26.506;2022-09-02T03:16:21;1.20;;;0.45;;
34359;SDS011;20624;55.870;26.506;2022-09-02T03:18:49;1.00;;;0.32;;
34359;SDS011;20624;55.870;26.506;2022-09-02T03:21:17;2.20;;;1.20;;
34359;SDS011;20624;55.870;26.506;2022-09-02T03:23:46;4.10;;;2.20;;
34359;SDS011;20624;55.870;26.506;2022-09-02T03:26:17;2.33;;;1.38;;
34359;SDS011;20624;55.870;26.506;2022-09-02T03:28:47;3.20;;;2.13;;
34359;SDS011;20624;55.870;26.506;2022-09-02T03:31:16;2.70;;;2.00;;
34359;SDS011;20624;55.870;26.506;2022-09-02T03:33:46;2.33;;;1.52;;
34359;SDS011;20624;55.870;26.506;2022-09-02T03:36:21;0.95;;;0.70;;
34359;SDS011;20624;55.870;26.506;2022-09-02T03:38:53;0.70;;;0.50;;
34359;SDS011;20624;55.870;26.506;2022-09-02T03:41:21;1.20;;;0.50;;
34359;SDS011;20624;55.870;26.506;2022-09-02T03:43:49;1.33;;;0.50;;
34359;SDS011;20624;55.870;26.506;2022-09-02T03:46:17;2.35;;;0.65;;
34359;SDS011;20624;55.870;26.506;2022-09-02T03:48:45;2.50;;;0.50;;
34359;SDS011;20624;55.870;26.506;2022-09-02T03:51:15;0.77;;;0.57;;
34359;SDS011;20624;55.870;26.506;2022-09-02T03:53:44;0.88;;;0.65;;
34359;SDS011;20624;55.870;26.506;2022-09-02T03:56:12;2.03;;;0.90;;
34359;SDS011;20624;55.870;26.506;2022-09-02T03:58:44;2.45;;;0.60;;
34359;SDS011;20624;55.870;26.506;2022-09-02T04:01:19;0.90;;;0.50;;
34359;SDS011;20624;55.870;26.506;2022-09-02T04:03:49;2.03;;;0.50;;
34359;SDS011;20624;55.870;26.506;2022-09-02T04:06:19;1.27;;;0.60;;
34359;SDS011;20624;55.870;26.506;2022-09-02T04:08:47;3.55;;;0.73;;
34359;SDS011;20624;55.870;26.506;2022-09-02T04:11:16;1.45;;;0.63;;
34359;SDS011;20624;55.870;26.506;2022-09-02T04:13:45;1.00;;;0.57;;
34359;SDS011;20624;55.870;26.506;2022-09-02T04:16:15;3.13;;;0.68;;
34359;SDS011;20624;55.870;26.506;2022-09-02T04:18:44;0.80;;;0.50;;
34359;SDS011;20624;55.870;26.506;2022-09-02T04:21:12;1.27;;;0.68;;
34359;SDS011;20624;55.870;26.506;2022-09-02T04:23:41;4.22;;;0.80;;
34359;SDS011;20624;55.870;26.506;2022-09-02T04:26:10;2.60;;;0.80;;
34359;SDS011;20624;55.870;26.506;2022-09-02T04:28:39;6.40;;;1.40;;
34359;SDS011;20624;55.870;26.506;2022-09-02T04:31:08;3.72;;;1.80;;
34359;SDS011;20624;55.870;26.506;2022-09-02T04:33:37;3.90;;;1.90;;
34359;SDS011;20624;55.870;26.506;2022-09-02T04:36:05;2.45;;;1.40;;
34359;SDS011;20624;55.870;26.506;2022-09-02T04:38:38;2.35;;;1.30;;
34359;SDS011;20624;55.870;26.506;2022-09-02T04:41:08;1.33;;;0.80;;
34359;SDS011;20624;55.870;26.506;2022-09-02T04:43:38;2.65;;;0.90;;
34359;SDS011;20624;55.870;26.506;2022-09-02T04:46:07;2.10;;;0.90;;
34359;SDS011;20624;55.870;26.506;2022-09-02T04:48:36;1.45;;;1.00;;
34359;SDS011;20624;55.870;26.506;2022-09-02T04:51:17;3.35;;;1.30;;
34359;SDS011;20624;55.870;26.506;2022-09-02T04:53:47;1.83;;;1.00;;
34359;SDS011;20624;55.870;26.506;2022-09-02T04:56:17;2.45;;;1.20;;
34359;SDS011;20624;55.870;26.506;2022-09-02T04:58:48;3.10;;;1.15;;
34359;SDS011;20624;55.870;26.506;2022-09-02T05:01:19;2.53;;;1.10;;
34359;SDS011;20624;55.870;26.506;2022-09-02T05:03:51;2.85;;;1.00;;
34359;SDS011;20624;55.870;26.506;2022-09-02T05:06:20;1.75;;;0.77;;
34359;SDS011;20624;55.870;26.506;2022-09-02T05:08:48;2.10;;;0.93;;
34359;SDS011;20624;55.870;26.506;2022-09-02T05:11:17;2.45;;;0.73;;
34359;SDS011;20624;55.870;26.506;2022-09-02T05:13:49;2.35;;;0.80;;
34359;SDS011;20624;55.870;26.506;2022-09-02T05:16:17;2.92;;;0.98;;
34359;SDS011;20624;55.870;26.506;2022-09-02T05:18:50;2.22;;;1.13;;
34359;SDS011;20624;55.870;26.506;2022-09-02T05:21:19;2.00;;;0.93;;
34359;SDS011;20624;55.870;26.506;2022-09-02T05:23:48;2.45;;;1.00;;
34359;SDS011;20624;55.870;26.506;2022-09-02T05:26:20;1.88;;;1.00;;
34359;SDS011;20624;55.870;26.506;2022-09-02T05:28:48;4.00;;;1.30;;
34359;SDS011;20624;55.870;26.506;2022-09-02T05:31:17;6.18;;;1.25;;
34359;SDS011;20624;55.870;26.506;2022-09-02T05:33:46;3.03;;;0.95;;
34359;SDS011;20624;55.870;26.506;2022-09-02T05:36:16;1.48;;;1.10;;
34359;SDS011;20624;55.870;26.506;2022-09-02T05:38:46;1.23;;;0.68;;
34359;SDS011;20624;55.870;26.506;2022-09-02T05:41:15;2.33;;;0.85;;
34359;SDS011;20624;55.870;26.506;2022-09-02T05:43:51;1.45;;;0.88;;
34359;SDS011;20624;55.870;26.506;2022-09-02T05:46:21;2.50;;;0.90;;
34359;SDS011;20624;55.870;26.506;2022-09-02T05:48:50;1.50;;;0.95;;
34359;SDS011;20624;55.870;26.506;2022-09-02T05:51:53;1.60;;;1.10;;
34359;SDS011;20624;55.870;26.506;2022-09-02T05:54:21;1.50;;;0.80;;
34359;SDS011;20624;55.870;26.506;2022-09-02T05:56:54;1.60;;;0.85;;
34359;SDS011;20624;55.870;26.506;2022-09-02T05:59:25;2.33;;;1.00;;
34359;SDS011;20624;55.870;26.506;2022-09-02T06:01:53;2.90;;;0.93;;
34359;SDS011;20624;55.870;26.506;2022-09-02T06:04:21;2.72;;;1.33;;
34359;SDS011;20624;55.870;26.506;2022-09-02T06:06:49;2.83;;;1.35;;
34359;SDS011;20624;55.870;26.506;2022-09-02T06:09:18;3.63;;;1.48;;
34359;SDS011;20624;55.870;26.506;2022-09-02T06:11:48;2.95;;;1.08;;
34359;SDS011;20624;55.870;26.506;2022-09-02T06:14:17;2.25;;;1.02;;
34359;SDS011;20624;55.870;26.506;2022-09-02T06:16:47;1.80;;;1.10;;
34359;SDS011;20624;55.870;26.506;2022-09-02T06:19:16;1.92;;;0.77;;
34359;SDS011;20624;55.870;26.506;2022-09-02T06:21:46;2.13;;;1.05;;
34359;SDS011;20624;55.870;26.506;2022-09-02T06:24:16;2.22;;;1.15;;
34359;SDS011;20624;55.870;26.506;2022-09-02T06:26:44;1.42;;;0.50;;
34359;SDS011;20624;55.870;26.506;2022-09-02T06:29:12;2.08;;;0.80;;
34359;SDS011;20624;55.870;26.506;2022-09-02T06:31:43;1.13;;;0.70;;
34359;SDS011;20624;55.870;26.506;2022-09-02T06:34:12;0.35;;;0.25;;
34359;SDS011;20624;55.870;26.506;2022-09-02T06:36:42;0.30;;;0.20;;
34359;SDS011;20624;55.870;26.506;2022-09-02T06:39:15;0.47;;;0.30;;
34359;SDS011;20624;55.870;26.506;2022-09-02T06:41:46;0.63;;;0.50;;
34359;SDS011;20624;55.870;26.506;2022-09-02T06:44:15;0.20;;;0.10;;
34359;SDS011;20624;55.870;26.506;2022-09-02T06:46:45;0.40;;;0.38;;
34359;SDS011;20624;55.870;26.506;2022-09-02T06:49:20;1.08;;;0.40;;
34359;SDS011;20624;55.870;26.506;2022-09-02T06:51:49;0.47;;;0.32;;
34359;SDS011;20624;55.870;26.506;2022-09-02T06:54:18;0.25;;;0.25;;
34359;SDS011;20624;55.870;26.506;2022-09-02T06:56:47;1.25;;;0.40;;
34359;SDS011;20624;55.870;26.506;2022-09-02T06:59:17;0.30;;;0.30;;
34359;SDS011;20624;55.870;26.506;2022-09-02T07:01:46;1.45;;;0.30;;
34359;SDS011;20624;55.870;26.506;2022-09-02T07:04:15;0.10;;;0.10;;
34359;SDS011;20624;55.870;26.506;2022-09-02T07:07:02;0.20;;;0.20;;
34359;SDS011;20624;55.870;26.506;2022-09-02T07:09:29;0.55;;;0.15;;
34359;SDS011;20624;55.870;26.506;2022-09-02T07:11:58;0.00;;;0.00;;
34359;SDS011;20624;55.870;26.506;2022-09-02T07:14:34;0.10;;;0.10;;
34359;SDS011;20624;55.870;26.506;2022-09-02T07:17:02;0.50;;;0.20;;
34359;SDS011;20624;55.870;26.506;2022-09-02T07:19:30;0.10;;;0.10;;
34359;SDS011;20624;55.870;26.506;2022-09-02T07:21:58;0.10;;;0.10;;
34359;SDS011;20624;55.870;26.506;2022-09-02T07:24:25;0.10;;;0.10;;
34359;SDS011;20624;55.870;26.506;2022-09-02T07:26:53;0.00;;;0.00;;
34359;SDS011;20624;55.870;26.506;2022-09-02T07:29:21;0.10;;;0.10;;
34359;SDS011;20624;55.870;26.506;2022-09-02T07:31:49;0.03;;;0.03;;
34359;SDS011;20624;55.870;26.506;2022-09-02T07:34:17;0.00;;;0.00;;
34359;SDS011;20624;55.870;26.506;2022-09-02T07:36:45;0.00;;;0.00;;
34359;SDS011;20624;55.870;26.506;2022-09-02T07:39:14;0.00;;;0.00;;
34359;SDS011;20624;55.870;26.506;2022-09-02T07:41:44;0.15;;;0.10;;
34359;SDS011;20624;55.870;26.506;2022-09-02T07:44:14;0.00;;;0.00;;
34359;SDS011;20624;55.870;26.506;2022-09-02T07:46:52;0.00;;;0.00;;
34359;SDS011;20624;55.870;26.506;2022-09-02T07:49:28;0.05;;;0.05;;
34359;SDS011;20624;55.870;26.506;2022-09-02T07:52:16;0.00;;;0.00;;
34359;SDS011;20624;55.870;26.506;2022-09-02T07:54:44;0.10;;;0.10;;
34359;SDS011;20624;55.870;26.506;2022-09-02T07:57:11;0.05;;;0.00;;
34359;SDS011;20624;55.870;26.506;2022-09-02T07:59:40;0.22;;;0.08;;
34359;SDS011;20624;55.870;26.506;2022-09-02T08:02:08;0.17;;;0.10;;
34359;SDS011;20624;55.870;26.506;2022-09-02T08:04:36;0.00;;;0.00;;
34359;SDS011;20624;55.870;26.506;2022-09-02T08:07:04;0.00;;;0.00;;
34359;SDS011;20624;55.870;26.506;2022-09-02T08:09:33;0.20;;;0.10;;
34359;SDS011;20624;55.870;26.506;2022-09-02T08:12:00;0.00;;;0.00;;
34359;SDS011;20624;55.870;26.506;2022-09-02T08:14:29;0.10;;;0.00;;
34359;SDS011;20624;55.870;26.506;2022-09-02T08:16:57;0.00;;;0.00;;
34359;SDS011;20624;55.870;26.506;2022-09-02T08:19:25;0.20;;;0.00;;
34359;SDS011;20624;55.870;26.506;2022-09-02T08:21:53;0.20;;;0.08;;
34359;SDS011;20624;55.870;26.506;2022-09-02T08:24:22;0.00;;;0.00;;
34359;SDS011;20624;55.870;26.506;2022-09-02T08:26:49;0.10;;;0.10;;
34359;SDS011;20624;55.870;26.506;2022-09-02T08:29:17;0.00;;;0.00;;
34359;SDS011;20624;55.870;26.506;2022-09-02T08:31:45;0.00;;;0.00;;
34359;SDS011;20624;55.870;26.506;2022-09-02T08:34:18;0.05;;;0.05;;
34359;SDS011;20624;55.870;26.506;2022-09-02T08:36:46;0.25;;;0.20;;
34359;SDS011;20624;55.870;26.506;2022-09-02T08:39:22;0.00;;;0.00;;
34359;SDS011;20624;55.870;26.506;2022-09-02T08:41:57;0.00;;;0.00;;
34359;SDS011;20624;55.870;26.506;2022-09-02T08:44:33;0.00;;;0.00;;
34359;SDS011;20624;55.870;26.506;2022-09-02T08:47:04;0.52;;;0.10;;
34359;SDS011;20624;55.870;26.506;2022-09-02T08:49:37;0.00;;;0.00;;
34359;SDS011;20624;55.870;26.506;2022-09-02T08:52:08;0.00;;;0.00;;
34359;SDS011;20624;55.870;26.506;2022-09-02T08:54:57;0.13;;;0.05;;
34359;SDS011;20624;55.870;26.506;2022-09-02T08:57:26;0.00;;;0.00;;
34359;SDS011;20624;55.870;26.506;2022-09-02T08:59:55;0.10;;;0.00;;
34359;SDS011;20624;55.870;26.506;2022-09-02T09:02:50;0.45;;;0.10;;
34359;SDS011;20624;55.870;26.506;2022-09-02T09:08:39;0.55;;;0.08;;
34359;SDS011;20624;55.870;26.506;2022-09-02T09:11:15;0.30;;;0.13;;
34359;SDS011;20624;55.870;26.506;2022-09-02T09:20:20;0.38;;;0.25;;
34359;SDS011;20624;55.870;26.506;2022-09-02T09:22:53;0.00;;;0.00;;
34359;SDS011;20624;55.870;26.506;2022-09-02T09:25:23;0.00;;;0.00;;
34359;SDS011;20624;55.870;26.506;2022-09-02T09:27:58;1.55;;;0.10;;
34359;SDS011;20624;55.870;26.506;2022-09-02T09:30:26;0.43;;;0.35;;
34359;SDS011;20624;55.870;26.506;2022-09-02T09:32:56;0.00;;;0.00;;
34359;SDS011;20624;55.870;26.506;2022-09-02T09:35:51;0.10;;;0.00;;
34359;SDS011;20624;55.870;26.506;2022-09-02T09:38:31;0.00;;;0.00;;
34359;SDS011;20624;55.870;26.506;2022-09-02T09:41:14;0.05;;;0.00;;
34359;SDS011;20624;55.870;26.506;2022-09-02T09:43:44;0.00;;;0.00;;
34359;SDS011;20624;55.870;26.506;2022-09-02T09:46:28;0.00;;;0.00;;
34359;SDS011;20624;55.870;26.506;2022-09-02T09:48:57;0.20;;;0.10;;
34359;SDS011;20624;55.870;26.506;2022-09-02T09:51:25;0.00;;;0.00;;
34359;SDS011;20624;55.870;26.506;2022-09-02T09:53:59;0.35;;;0.00;;
34359;SDS011;20624;55.870;26.506;2022-09-02T09:56:41;0.20;;;0.08;;
34359;SDS011;20624;55.870;26.506;2022-09-02T09:59:28;0.32;;;0.15;;
34359;SDS011;20624;55.870;26.506;2022-09-02T10:01:57;0.10;;;0.10;;
34359;SDS011;20624;55.870;26.506;2022-09-02T10:07:10;0.00;;;0.00;;
34359;SDS011;20624;55.870;26.506;2022-09-02T10:09:40;0.00;;;0.00;;
34359;SDS011;20624;55.870;26.506;2022-09-02T10:12:11;0.43;;;0.20;;
34359;SDS011;20624;55.870;26.506;2022-09-02T10:14:44;0.10;;;0.00;;
34359;SDS011;20624;55.870;26.506;2022-09-02T10:36:23;0.00;;;0.00;;
34359;SDS011;20624;55.870;26.506;2022-09-02T10:39:04;0.50;;;0.10;;
34359;SDS011;20624;55.870;26.506;2022-09-02T10:41:42;0.10;;;0.08;;
34359;SDS011;20624;55.870;26.506;2022-09-02T10:46:59;0.00;;;0.00;;
34359;SDS011;20624;55.870;26.506;2022-09-02T10:57:43;0.15;;;0.10;;
34359;SDS011;20624;55.870;26.506;2022-09-02T11:00:18;0.10;;;0.00;;
34359;SDS011;20624;55.870;26.506;2022-09-02T11:02:49;0.08;;;0.08;;
34359;SDS011;20624;55.870;26.506;2022-09-02T11:05:26;0.00;;;0.00;;
34359;SDS011;20624;55.870;26.506;2022-09-02T11:08:09;0.00;;;0.00;;
34359;SDS011;20624;55.870;26.506;2022-09-02T11:10:49;0.00;;;0.00;;
34359;SDS011;20624;55.870;26.506;2022-09-02T11:13:35;0.32;;;0.10;;
34359;SDS011;20624;55.870;26.506;2022-09-02T11:16:16;0.00;;;0.00;;
34359;SDS011;20624;55.870;26.506;2022-09-02T11:30:15;0.00;;;0.00;;
34359;SDS011;20624;55.870;26.506;2022-09-02T11:32:46;0.22;;;0.10;;
34359;SDS011;20624;55.870;26.506;2022-09-02T11:35:25;0.40;;;0.10;;
34359;SDS011;20624;55.870;26.506;2022-09-02T11:43:20;0.65;;;0.15;;
34359;SDS011;20624;55.870;26.506;2022-09-02T11:49:20;0.03;;;0.00;;
34359;SDS011;20624;55.870;26.506;2022-09-02T11:52:32;0.43;;;0.10;;
34359;SDS011;20624;55.870;26.506;2022-09-02T11:55:26;0.10;;;0.00;;
34359;SDS011;20624;55.870;26.506;2022-09-02T11:58:03;0.08;;;0.00;;
34359;SDS011;20624;55.870;26.506;2022-09-02T12:00:35;0.52;;;0.10;;
34359;SDS011;20624;55.870;26.506;2022-09-02T12:03:25;0.00;;;0.00;;
34359;SDS011;20624;55.870;26.506;2022-09-02T12:06:15;0.15;;;0.10;;
34359;SDS011;20624;55.870;26.506;2022-09-02T12:14:09;0.10;;;0.00;;
34359;SDS011;20624;55.870;26.506;2022-09-02T12:16:40;0.00;;;0.00;;
34359;SDS011;20624;55.870;26.506;2022-09-02T12:24:47;0.25;;;0.17;;
34359;SDS011;20624;55.870;26.506;2022-09-02T12:27:26;0.00;;;0.00;;
34359;SDS011;20624;55.870;26.506;2022-09-02T12:30:05;0.10;;;0.03;;
34359;SDS011;20624;55.870;26.506;2022-09-02T12:33:00;0.10;;;0.03;;
34359;SDS011;20624;55.870;26.506;2022-09-02T12:38:22;0.00;;;0.00;;
34359;SDS011;20624;55.870;26.506;2022-09-02T12:43:34;0.00;;;0.00;;
34359;SDS011;20624;55.870;26.506;2022-09-02T12:51:59;0.17;;;0.10;;
34359;SDS011;20624;55.870;26.506;2022-09-02T12:57:05;0.20;;;0.10;;
34359;SDS011;20624;55.870;26.506;2022-09-02T12:59:37;0.20;;;0.10;;
34359;SDS011;20624;55.870;26.506;2022-09-02T13:02:55;0.47;;;0.10;;
34359;SDS011;20624;55.870;26.506;2022-09-02T13:08:18;0.10;;;0.10;;
34359;SDS011;20624;55.870;26.506;2022-09-02T13:11:20;0.00;;;0.00;;
34359;SDS011;20624;55.870;26.506;2022-09-02T13:17:04;0.00;;;0.00;;
34359;SDS011;20624;55.870;26.506;2022-09-02T13:32:14;0.40;;;0.30;;
34359;SDS011;20624;55.870;26.506;2022-09-02T13:34:42;0.98;;;0.30;;
34359;SDS011;20624;55.870;26.506;2022-09-02T13:40:22;0.68;;;0.22;;
34359;SDS011;20624;55.870;26.506;2022-09-02T13:42:55;0.88;;;0.20;;
34359;SDS011;20624;55.870;26.506;2022-09-02T13:45:46;7.22;;;0.73;;
34359;SDS011;20624;55.870;26.506;2022-09-02T13:48:19;0.50;;;0.30;;
34359;SDS011;20624;55.870;26.506;2022-09-02T13:50:49;0.10;;;0.10;;
34359;SDS011;20624;55.870;26.506;2022-09-02T13:56:08;2.00;;;0.40;;
34359;SDS011;20624;55.870;26.506;2022-09-02T13:58:41;0.00;;;0.00;;
34359;SDS011;20624;55.870;26.506;2022-09-02T14:03:50;0.10;;;0.10;;
34359;SDS011;20624;55.870;26.506;2022-09-02T14:06:20;1.55;;;0.32;;
34359;SDS011;20624;55.870;26.506;2022-09-02T14:09:01;0.17;;;0.17;;
34359;SDS011;20624;55.870;26.506;2022-09-02T14:11:35;0.25;;;0.20;;
34359;SDS011;20624;55.870;26.506;2022-09-02T14:14:06;1.10;;;0.65;;
34359;SDS011;20624;55.870;26.506;2022-09-02T14:16:41;0.03;;;0.03;;
34359;SDS011;20624;55.870;26.506;2022-09-02T14:21:54;0.10;;;0.03;;
34359;SDS011;20624;55.870;26.506;2022-09-02T14:24:25;0.00;;;0.00;;
34359;SDS011;20624;55.870;26.506;2022-09-02T14:26:55;0.17;;;0.10;;
34359;SDS011;20624;55.870;26.506;2022-09-02T14:29:24;0.50;;;0.35;;
34359;SDS011;20624;55.870;26.506;2022-09-02T14:34:41;0.17;;;0.17;;
34359;SDS011;20624;55.870;26.506;2022-09-02T14:37:23;0.00;;;0.00;;
34359;SDS011;20624;55.870;26.506;2022-09-02T14:40:04;0.00;;;0.00;;
34359;SDS011;20624;55.870;26.506;2022-09-02T14:42:48;0.00;;;0.00;;
34359;SDS011;20624;55.870;26.506;2022-09-02T14:45:24;0.00;;;0.00;;
34359;SDS011;20624;55.870;26.506;2022-09-02T14:47:59;0.77;;;0.20;;
34359;SDS011;20624;55.870;26.506;2022-09-02T14:50:36;0.00;;;0.00;;
34359;SDS011;20624;55.870;26.506;2022-09-02T14:53:07;0.00;;;0.00;;
34359;SDS011;20624;55.870;26.506;2022-09-02T14:58:06;0.20;;;0.10;;
34359;SDS011;20624;55.870;26.506;2022-09-02T15:00:36;1.00;;;0.22;;
34359;SDS011;20624;55.870;26.506;2022-09-02T15:03:05;0.00;;;0.00;;
34359;SDS011;20624;55.870;26.506;2022-09-02T15:05:33;0.00;;;0.00;;
34359;SDS011;20624;55.870;26.506;2022-09-02T15:08:01;0.40;;;0.20;;
34359;SDS011;20624;55.870;26.506;2022-09-02T15:10:29;0.47;;;0.00;;
34359;SDS011;20624;55.870;26.506;2022-09-02T15:12:58;0.20;;;0.00;;
34359;SDS011;20624;55.870;26.506;2022-09-02T15:15:25;0.00;;;0.00;;
34359;SDS011;20624;55.870;26.506;2022-09-02T15:17:53;0.22;;;0.10;;
34359;SDS011;20624;55.870;26.506;2022-09-02T15:20:21;0.08;;;0.08;;
34359;SDS011;20624;55.870;26.506;2022-09-02T15:22:53;0.55;;;0.20;;
34359;SDS011;20624;55.870;26.506;2022-09-02T15:25:21;0.03;;;0.03;;
34359;SDS011;20624;55.870;26.506;2022-09-02T15:27:49;0.30;;;0.10;;
34359;SDS011;20624;55.870;26.506;2022-09-02T15:30:17;0.10;;;0.10;;
34359;SDS011;20624;55.870;26.506;2022-09-02T15:32:45;0.00;;;0.00;;
34359;SDS011;20624;55.870;26.506;2022-09-02T15:35:13;0.25;;;0.10;;
34359;SDS011;20624;55.870;26.506;2022-09-02T15:37:41;0.35;;;0.20;;
34359;SDS011;20624;55.870;26.506;2022-09-02T15:40:09;0.03;;;0.03;;
34359;SDS011;20624;55.870;26.506;2022-09-02T15:42:40;0.10;;;0.10;;
34359;SDS011;20624;55.870;26.506;2022-09-02T15:45:08;0.10;;;0.10;;
34359;SDS011;20624;55.870;26.506;2022-09-02T15:47:36;0.10;;;0.10;;
34359;SDS011;20624;55.870;26.506;2022-09-02T15:50:04;0.20;;;0.20;;
34359;SDS011;20624;55.870;26.506;2022-09-02T15:52:33;0.40;;;0.20;;
34359;SDS011;20624;55.870;26.506;2022-09-02T15:55:01;0.45;;;0.10;;
34359;SDS011;20624;55.870;26.506;2022-09-02T15:57:29;1.15;;;0.10;;
34359;SDS011;20624;55.870;26.506;2022-09-02T15:59:57;0.25;;;0.15;;
34359;SDS011;20624;55.870;26.506;2022-09-02T16:02:32;0.30;;;0.15;;
34359;SDS011;20624;55.870;26.506;2022-09-02T16:05:01;0.10;;;0.10;;
34359;SDS011;20624;55.870;26.506;2022-09-02T16:07:30;0.17;;;0.13;;
34359;SDS011;20624;55.870;26.506;2022-09-02T16:09:58;0.85;;;0.47;;
34359;SDS011;20624;55.870;26.506;2022-09-02T16:12:29;0.47;;;0.25;;
34359;SDS011;20624;55.870;26.506;2022-09-02T16:14:56;0.43;;;0.22;;
34359;SDS011;20624;55.870;26.506;2022-09-02T16:17:26;0.17;;;0.17;;
34359;SDS011;20624;55.870;26.506;2022-09-02T16:19:54;0.30;;;0.20;;
34359;SDS011;20624;55.870;26.506;2022-09-02T16:22:21;0.65;;;0.20;;
34359;SDS011;20624;55.870;26.506;2022-09-02T16:24:49;0.30;;;0.22;;
34359;SDS011;20624;55.870;26.506;2022-09-02T16:27:18;0.70;;;0.22;;
34359;SDS011;20624;55.870;26.506;2022-09-02T16:30:05;0.13;;;0.13;;
34359;SDS011;20624;55.870;26.506;2022-09-02T16:32:33;0.35;;;0.28;;
34359;SDS011;20624;55.870;26.506;2022-09-02T16:35:01;0.75;;;0.30;;
34359;SDS011;20624;55.870;26.506;2022-09-02T16:37:29;0.70;;;0.50;;
34359;SDS011;20624;55.870;26.506;2022-09-02T16:39:56;0.50;;;0.50;;
34359;SDS011;20624;55.870;26.506;2022-09-02T16:42:24;0.63;;;0.35;;
34359;SDS011;20624;55.870;26.506;2022-09-02T16:44:51;0.45;;;0.30;;
34359;SDS011;20624;55.870;26.506;2022-09-02T16:47:19;0.95;;;0.45;;
34359;SDS011;20624;55.870;26.506;2022-09-02T16:49:47;0.88;;;0.50;;
34359;SDS011;20624;55.870;26.506;2022-09-02T16:52:15;0.55;;;0.40;;
34359;SDS011;20624;55.870;26.506;2022-09-02T16:54:46;1.00;;;0.57;;
34359;SDS011;20624;55.870;26.506;2022-09-02T16:57:14;1.85;;;0.30;;
34359;SDS011;20624;55.870;26.506;2022-09-02T16:59:41;1.00;;;0.50;;
34359;SDS011;20624;55.870;26.506;2022-09-02T17:02:09;3.60;;;0.30;;
34359;SDS011;20624;55.870;26.506;2022-09-02T17:04:37;0.95;;;0.60;;